Airfield :
LOGIN :

Register | Disclaimer

   EN    FR    IT 

 










Legend :    VFR   Marginal VFR   IFR   Intensive IFR   Very Intensive IFR
Visi :
Ceiling :
>= 8 km
>= 3000ft
5 to 8 km
1000 to 3000 ft
1500m to 5 km
500 to 1000 ft
800 to 1500m
200 to 500 ft
< 800m
< 200 ft
Symbols :   Thunderstorms  Fog  Heavy snow  Heavy precipitations  Wind > 20 kt
SIGMETs :     Misc.  Thunderstorms  Icing  Turbulence  Mountain Waves  Volcanic Ashes







- Airport Elevation : 226 ft
- IATA code : BEX


EGUB - RAF Benson

CURRENT METAR :
  • 181550Z 21010KT 9999 SCT030 BKN046 08/06 Q1013 BLU NOSIG

EXPIRED METARs :
  • 181525Z 21007KT 9999 -SHRA SCT028 BKN035 07/06 Q1013 BLU NOSIG
  • 181501Z 20011KT 9999 FEW012TCU SCT017 BKN040 07/05 Q1013 WHT TEMPO FEW020 BLU
  • 181450Z 24011G21KT 9999 3700N SHRA BKN012CB SCT020 BKN030 07/05 Q1014 GRN TEMPO 9999 NSW SCT020 WHT
  • 181431Z 22012KT 4000 -SHRA BKN014TCU BKN080 09/06 Q1014 GRN TEMPO 9999 NSW BLU
  • 181350Z 19013KT 9999 SCT012 OVC100 10/07 Q1013 GRN TEMPO 7000 -SHRA GRN
  • 181325Z 18012KT 9999 BKN012 OVC050 09/07 Q1013 GRN TEMPO SCT015 WHT

TAF AMD TAF EGUB
Valid from the 18 at 14:00 until the 18 at 22:00 UTC


181437Z 1814/1822 22010KT 9999 FEW020
TEMPO 1814/1818 6000 -SHRA BKN015
PROB40
TEMPO 1814/1818 4000 SHRA BKN012CB
PROB30
TEMPO 1818/1822 SCT020
ATIS : +44 1491-837766 (x7524)
No reported NOTAMs for that airfield.



MET'MAP, your aeronautical weather chart ! - Copyright ORBIFLY December 2007 - Disclaimer

ORBIFLY MET'MAP TEAM :

Programming & Development : Alexandra Zaïnal
Concept & Development : Baudouin d'Aumeries
Co-Development & Prog : Marc-Olivier Méhu
Technical & hardware support : Manuel Goepfert

Contact : metmap@orbifly.com




SOURCES & CREDITS :

   NOAA